Terminal Aerodrome Forecast
Issued by NWS Cheyenne, WY

Home | Current Version | Previous Version | Text Only | Print | Product List | Glossary On
Versions: 1 2 3 4 5 6 7 8 9 10 11 12 13 14 15 16 17 18 19 20 21
000
FTUS45 KCYS 261120
TAFCYS
TAF
KCYS 261120Z 2612/2712 30008KT P6SM SKC
     FM261600 06010KT P6SM FEW050
     FM262100 16012G22KT P6SM SCT070
     FM270100 21008KT P6SM FEW100=

USA.gov is the U.S. government's official web portal to all federal, state and local government web resources and services.